Time;durP1;ratioP1;P1;durP2;ratioP2;P2;SDS_P1;SDS_P2;PMS_P1;PMS_P2;Temp;Humidity;BMP_temperature;BMP_pressure;BME280_temperature;BME280_humidity;BME280_pressure;Samples;Min_cycle;Max_cycle;Signal;HPM_P1;HPM_P2
2022/08/18 00:01:07;;;;;;;;;16.50;14.00;;;;;21.71;60.70;100912.44;6338729;22;45174;-91
2022/08/18 00:03:33;;;;;;;;;13.50;12.25;;;;;21.67;60.69;100907.31;6315839;22;45642;-89
2022/08/18 00:05:58;;;;;;;;;12.25;12.25;;;;;21.76;60.58;100923.81;6315776;22;45163;-92
2022/08/18 00:08:23;;;;;;;;;11.75;11.00;;;;;21.68;60.61;100909.03;6338273;22;45393;-86
2022/08/18 00:10:49;;;;;;;;;14.50;13.50;;;;;21.65;60.42;100907.41;6339611;22;45227;-84
2022/08/18 00:13:14;;;;;;;;;9.67;9.00;;;;;21.59;60.28;100904.97;6311035;22;45287;-85
2022/08/18 00:15:40;;;;;;;;;10.00;9.33;;;;;21.67;60.20;100920.69;6337381;22;45369;-80
2022/08/18 00:18:05;;;;;;;;;15.25;12.25;;;;;21.62;60.21;100909.31;6337821;22;45569;-80
2022/08/18 00:20:30;;;;;;;;;12.00;11.00;;;;;21.70;59.82;100925.91;6338381;22;46832;-81
2022/08/18 00:22:56;;;;;;;;;12.00;12.00;;;;;21.68;60.19;100923.31;6312847;22;45396;-80
2022/08/18 00:25:23;;;;;;;;;13.75;13.75;;;;;21.70;60.32;100928.59;6341841;22;45368;-80
2022/08/18 00:27:48;;;;;;;;;13.00;11.67;;;;;21.73;60.22;100920.41;6311155;22;45559;-80
2022/08/18 00:30:18;;;;;;;;;9.75;9.75;;;;;21.67;60.34;100916.19;6310390;22;48320;-80
2022/08/18 00:32:49;;;;;;;;;12.50;12.25;;;;;21.56;60.23;100900.63;6310609;22;45325;-80
2022/08/18 00:35:19;;;;;;;;;11.75;10.50;;;;;21.66;60.72;100922.50;6339254;22;45540;-80
2022/08/18 00:37:48;;;;;;;;;11.75;11.75;;;;;21.58;60.43;100912.16;6339250;22;45368;-80
2022/08/18 00:40:19;;;;;;;;;11.75;11.75;;;;;21.55;60.43;100911.44;6310405;22;47884;-81
2022/08/18 00:42:49;;;;;;;;;11.75;10.00;;;;;21.57;60.35;100915.78;6339294;22;45452;-80
2022/08/18 00:45:19;;;;;;;;;14.00;13.25;;;;;21.58;60.56;100928.22;6313645;22;45184;-81
2022/08/18 00:47:45;;;;;;;;;16.25;16.25;;;;;21.47;60.29;100913.59;6313124;22;45370;-80
2022/08/18 00:50:16;;;;;;;;;11.00;11.00;;;;;21.47;60.70;100918.97;6312857;22;47810;-80
2022/08/18 00:52:52;;;;;;;;;12.25;10.75;;;;;21.46;60.95;100917.22;6341503;22;45165;-80
2022/08/18 00:55:19;;;;;;;;;11.25;11.00;;;;;21.43;60.95;100920.03;6313282;22;45286;-80
2022/08/18 00:57:48;;;;;;;;;11.25;11.25;;;;;21.47;61.07;100930.53;6341527;22;45379;-81
2022/08/18 01:00:14;;;;;;;;;10.25;10.25;;;;;21.44;61.43;100928.00;6341264;22;45609;-80
2022/08/18 01:02:46;;;;;;;;;12.00;11.00;;;;;21.43;61.07;100936.09;6313246;22;45302;-81
2022/08/18 01:05:19;;;;;;;;;12.25;12.25;;;;;21.36;61.16;100922.97;6313634;22;45208;-80
2022/08/18 01:07:47;;;;;;;;;12.50;11.25;;;;;21.46;61.44;100939.50;6341840;22;45424;-80
2022/08/18 01:10:18;;;;;;;;;15.25;12.25;;;;;21.36;62.16;100936.38;6341744;22;46219;-80
2022/08/18 01:12:47;;;;;;;;;12.25;10.50;;;;;21.27;62.33;100931.41;6313521;22;45154;-81
2022/08/18 01:15:16;;;;;;;;;16.00;14.75;;;;;21.26;62.65;100939.53;6343309;22;45475;-80
2022/08/18 01:23:26;;;;;;;;;14.00;14.00;;;;;21.03;62.78;100927.16;6341815;22;45298;-80
2022/08/18 01:26:02;;;;;;;;;13.50;13.25;;;;;20.97;62.45;100927.44;6313793;22;45279;-80
2022/08/18 01:28:37;;;;;;;;;13.75;13.25;;;;;21.01;62.67;100943.31;6313277;22;45444;-80
2022/08/18 01:31:04;;;;;;;;;10.50;10.50;;;;;20.92;62.65;100935.66;6312472;22;46442;-81
2022/08/18 01:33:35;;;;;;;;;16.00;14.75;;;;;20.89;62.59;100931.31;6312871;22;45221;-81
2022/08/18 01:36:15;;;;;;;;;19.00;14.25;;;;;20.84;62.87;100932.44;6341726;22;45267;-80
2022/08/18 01:38:45;;;;;;;;;17.25;14.50;;;;;20.85;62.88;100939.53;6339612;22;45265;-80
2022/08/18 01:41:11;;;;;;;;;12.00;11.50;;;;;20.84;62.89;100940.47;6341574;22;45442;-80
2022/08/18 01:43:37;;;;;;;;;13.00;10.25;;;;;20.83;63.07;100930.72;6313706;22;45716;-80
2022/08/18 01:46:03;;;;;;;;;15.00;13.00;;;;;20.78;62.87;100930.91;6341410;22;45356;-81
2022/08/18 01:48:36;;;;;;;;;13.75;12.75;;;;;20.73;63.00;100926.69;6313472;22;45290;-80
2022/08/18 01:51:07;;;;;;;;;12.00;12.00;;;;;20.77;63.11;100941.66;6341703;22;45262;-81
2022/08/18 01:53:33;;;;;;;;;9.00;9.00;;;;;20.81;62.61;100960.22;6312717;22;46033;-80
2022/08/18 01:55:59;;;;;;;;;13.50;11.75;;;;;20.72;62.62;100946.38;6311972;22;45211;-80
2022/08/18 01:58:26;;;;;;;;;13.00;12.00;;;;;20.75;62.36;100956.94;6341880;22;45275;-81
2022/08/18 02:00:57;;;;;;;;;15.25;13.75;;;;;20.63;62.32;100964.53;6340822;22;45376;-80
2022/08/18 02:03:25;;;;;;;;;13.50;9.50;;;;;20.64;62.86;100968.09;6313132;22;45227;-80
2022/08/18 02:05:58;;;;;;;;;12.00;10.75;;;;;20.64;62.92;100971.63;6313448;22;45291;-80
2022/08/18 02:08:24;;;;;;;;;13.25;12.50;;;;;20.55;63.18;100963.13;6313411;22;45207;-80
2022/08/18 02:10:50;;;;;;;;;10.75;10.75;;;;;20.45;63.17;100952.78;6313087;22;46175;-80
2022/08/18 02:13:15;;;;;;;;;12.00;10.67;;;;;20.51;63.15;100975.72;6341827;22;45318;-80
2022/08/18 02:15:41;;;;;;;;;9.00;7.00;;;;;20.44;63.35;100968.88;6341617;22;45345;-80
2022/08/18 02:18:13;;;;;;;;;9.50;8.75;;;;;20.35;63.04;100955.91;6313547;22;45416;-80
2022/08/18 02:20:38;;;;;;;;;12.00;12.00;;;;;20.30;63.42;100957.88;6341468;22;46156;-79
2022/08/18 02:23:04;;;;;;;;;14.00;11.00;;;;;20.32;63.52;100972.94;6341559;22;45171;-80
2022/08/18 02:25:29;;;;;;;;;12.00;12.00;;;;;20.26;63.50;100971.38;6313806;22;45439;-79
2022/08/18 02:27:55;;;;;;;;;12.67;10.67;;;;;20.30;63.42;100976.59;6312178;22;45396;-80
2022/08/18 02:30:21;;;;;;;;;10.33;9.33;;;;;20.15;63.44;100964.72;6341211;22;45404;-80
2022/08/18 02:32:47;;;;;;;;;11.50;10.00;;;;;20.12;63.44;100959.50;6341469;22;45273;-79
2022/08/18 02:35:13;;;;;;;;;13.00;12.00;;;;;20.08;63.59;100957.88;6313242;22;45365;-79
2022/08/18 02:37:39;;;;;;;;;12.50;12.25;;;;;20.13;63.72;100966.56;6313144;22;45340;-79
2022/08/18 02:40:05;;;;;;;;;13.00;10.00;;;;;20.14;63.38;100965.66;6341564;22;45719;-79
2022/08/18 02:42:31;;;;;;;;;9.00;9.00;;;;;20.15;63.60;100970.91;6341445;22;45132;-80
2022/08/18 02:44:56;;;;;;;;;9.75;9.75;;;;;20.14;63.53;100962.97;6312896;22;45206;-79
2022/08/18 02:47:22;;;;;;;;;13.33;11.33;;;;;20.12;63.63;100964.84;6333276;22;45915;-80
2022/08/18 02:49:47;;;;;;;;;10.00;8.33;;;;;19.97;63.58;100942.28;6309890;22;45178;-80
2022/08/18 02:52:13;;;;;;;;;12.00;12.00;;;;;20.06;63.44;100963.28;6309980;22;45100;-80
2022/08/18 02:54:39;;;;;;;;;12.25;9.50;;;;;20.03;63.86;100961.59;6307618;22;45375;-80
2022/08/18 02:57:09;;;;;;;;;10.75;10.00;;;;;19.93;63.51;100940.63;6308252;22;45374;-80
2022/08/18 02:59:38;;;;;;;;;12.00;10.33;;;;;19.98;64.00;100952.03;6309562;22;45159;-80
2022/08/18 03:02:06;;;;;;;;;9.75;9.00;;;;;19.89;64.25;100939.91;6307803;22;45926;-80
2022/08/18 03:04:33;;;;;;;;;13.00;11.75;;;;;19.92;63.79;100934.44;6307378;22;45365;-79
2022/08/18 03:07:03;;;;;;;;;10.75;10.00;;;;;19.89;64.22;100931.00;6309697;22;45372;-80
2022/08/18 03:09:30;;;;;;;;;9.25;8.75;;;;;19.88;63.81;100932.78;6307388;22;48295;-80
2022/08/18 03:11:57;;;;;;;;;9.00;8.00;;;;;19.79;63.54;100922.47;6309607;22;45382;-78
2022/08/18 03:14:23;;;;;;;;;11.75;10.75;;;;;19.81;63.81;100929.50;6307809;22;45373;-80
2022/08/18 03:16:48;;;;;;;;;9.25;8.25;;;;;19.74;63.61;100917.31;6307499;22;45409;-80
2022/08/18 03:19:15;;;;;;;;;9.25;9.25;;;;;19.83;63.49;100937.44;6309765;22;45450;-80
2022/08/18 03:21:44;;;;;;;;;10.25;10.25;;;;;19.83;64.01;100941.00;6307788;22;45239;-80
2022/08/18 03:24:11;;;;;;;;;10.50;10.50;;;;;19.79;63.95;100944.72;6307727;22;45369;-80
2022/08/18 03:26:42;;;;;;;;;9.75;9.50;;;;;19.67;64.19;100920.28;6309697;22;45249;-80
2022/08/18 03:29:09;;;;;;;;;10.25;10.00;;;;;19.60;63.80;100920.50;6311366;22;45185;-80
2022/08/18 03:31:36;;;;;;;;;14.50;9.75;;;;;19.72;63.43;100943.22;6308167;22;45315;-81
2022/08/18 03:34:03;;;;;;;;;10.75;8.25;;;;;19.55;63.73;100913.59;6307954;22;45301;-80
2022/08/18 03:36:32;;;;;;;;;8.75;8.75;;;;;19.53;63.44;100912.78;6309355;22;45362;-80
2022/08/18 03:39:00;;;;;;;;;11.50;9.50;;;;;19.63;63.54;100942.69;6309064;22;46512;-80
2022/08/18 03:41:26;;;;;;;;;10.75;10.00;;;;;19.55;63.62;100918.94;6307294;22;45367;-81
2022/08/18 03:43:52;;;;;;;;;12.25;10.25;;;;;19.48;63.97;100912.06;6307708;22;45302;-80
2022/08/18 03:46:20;;;;;;;;;8.50;8.00;;;;;19.43;63.94;100909.56;6311821;22;45377;-80
2022/08/18 03:48:48;;;;;;;;;10.50;9.00;;;;;19.53;63.72;100931.47;6340827;22;45188;-80
2022/08/18 03:51:17;;;;;;;;;10.50;9.50;;;;;19.55;63.69;100933.16;6338727;22;45282;-81
2022/08/18 03:53:43;;;;;;;;;9.50;8.50;;;;;19.48;63.67;100918.28;6340646;22;45243;-80
2022/08/18 03:56:14;;;;;;;;;10.33;10.33;;;;;19.56;63.48;100932.19;6342272;22;45192;-80
2022/08/18 03:58:48;;;;;;;;;8.00;8.00;;;;;19.51;63.82;100928.88;6342299;22;45396;-80
2022/08/18 04:01:16;;;;;;;;;11.00;9.00;;;;;19.48;63.67;100928.94;6341837;22;45229;-80
2022/08/18 04:03:43;;;;;;;;;12.00;12.00;;;;;19.49;63.81;100928.03;6313987;22;45333;-80
2022/08/18 04:06:30;;;;;;;;;9.50;9.50;;;;;19.45;64.09;100931.75;6313846;22;45418;-80
2022/08/18 04:08:59;;;;;;;;;11.33;11.33;;;;;19.44;63.83;100923.81;6342205;22;45367;-80
2022/08/18 04:11:27;;;;;;;;;10.75;10.75;;;;;19.44;64.00;100916.66;6341974;22;45233;-80
2022/08/18 04:13:52;;;;;;;;;7.75;7.75;;;;;19.50;63.95;100926.25;6313886;22;45376;-80
2022/08/18 04:16:18;;;;;;;;;11.00;10.00;;;;;19.47;63.98;100918.34;6313689;22;45753;-80
2022/08/18 04:18:43;;;;;;;;;9.25;8.75;;;;;19.43;63.74;100912.22;6313762;22;48044;-80
2022/08/18 04:21:12;;;;;;;;;12.75;11.75;;;;;19.51;63.80;100923.53;6342533;22;45298;-80
2022/08/18 04:23:39;;;;;;;;;10.50;10.50;;;;;19.60;63.64;100935.66;6314233;22;45230;-79
2022/08/18 04:26:06;;;;;;;;;11.25;10.50;;;;;19.58;63.63;100933.03;6315014;22;45539;-79
2022/08/18 04:28:32;;;;;;;;;14.75;11.00;;;;;19.63;63.66;100935.53;6343496;22;46606;-80
2022/08/18 04:30:58;;;;;;;;;10.50;10.50;;;;;19.65;63.67;100931.00;6342229;22;45349;-80
2022/08/18 04:33:25;;;;;;;;;13.50;11.50;;;;;19.62;64.01;100928.47;6342557;22;45417;-80
2022/08/18 04:35:50;;;;;;;;;6.50;6.50;;;;;19.55;63.67;100913.59;6343773;22;45513;-81
2022/08/18 04:38:16;;;;;;;;;13.50;12.75;;;;;19.66;64.04;100934.53;6343341;22;45291;-79
2022/08/18 04:40:42;;;;;;;;;13.00;10.67;;;;;19.72;63.61;100939.66;6315753;22;45160;-80
2022/08/18 04:43:14;;;;;;;;;11.50;11.00;;;;;19.73;63.54;100934.28;6315644;22;45452;-80
2022/08/18 04:45:41;;;;;;;;;10.50;10.25;;;;;19.63;63.85;100916.84;6341875;22;45453;-80
2022/08/18 04:48:06;;;;;;;;;12.50;10.75;;;;;19.75;63.82;100937.78;6343188;22;46678;-80
2022/08/18 04:50:32;;;;;;;;;11.25;10.25;;;;;19.72;63.78;100929.00;6340666;22;45570;-80
2022/08/18 04:55:47;;;;;;;;;16.00;13.50;;;;;19.68;63.68;100943.41;6343353;22;45399;-80
2022/08/18 04:58:14;;;;;;;;;10.50;10.00;;;;;19.69;64.00;100942.47;6340927;22;46410;-79
2022/08/18 05:00:42;;;;;;;;;11.00;11.00;;;;;19.69;63.55;100940.66;6343720;22;45163;-81
2022/08/18 05:03:09;;;;;;;;;9.25;7.75;;;;;19.78;64.20;100972.38;6316495;22;45253;-80
2022/08/18 05:05:34;;;;;;;;;11.00;10.25;;;;;19.71;63.98;100972.66;6316336;22;45199;-80
2022/08/18 05:08:00;;;;;;;;;12.25;11.50;;;;;19.63;63.67;100956.03;6342375;22;45395;-79
2022/08/18 05:10:25;;;;;;;;;15.50;14.50;;;;;19.67;64.26;100971.03;6313817;22;45302;-80
2022/08/18 05:12:51;;;;;;;;;10.00;10.00;;;;;19.69;63.99;100979.88;6313663;22;45442;-80
2022/08/18 05:15:17;;;;;;;;;14.25;14.00;;;;;19.60;63.93;100968.56;6341677;22;45258;-79
2022/08/18 05:17:43;;;;;;;;;13.50;13.50;;;;;19.68;63.90;100980.81;6313460;22;47201;-81
2022/08/18 05:20:09;;;;;;;;;14.25;11.00;;;;;19.74;64.10;101005.47;6313196;22;45367;-81
2022/08/18 05:22:40;;;;;;;;;12.25;12.25;;;;;19.67;63.87;100995.06;6313821;22;45321;-80
2022/08/18 05:25:11;;;;;;;;;12.00;10.75;;;;;19.63;63.80;100998.78;6313072;22;45370;-81
2022/08/18 05:27:39;;;;;;;;;13.50;11.75;;;;;19.67;63.85;101008.44;6313099;22;46388;-80
2022/08/18 05:30:06;;;;;;;;;12.00;12.00;;;;;19.55;63.82;100978.53;6313264;22;45401;-80
2022/08/18 05:32:39;;;;;;;;;12.50;12.25;;;;;19.53;63.90;100982.19;6313637;22;45286;-80
2022/08/18 05:35:15;;;;;;;;;10.25;8.00;;;;;19.50;64.53;100979.66;6312772;22;45396;-80
2022/08/18 05:38:22;;;;;;;;;12.25;12.25;;;;;19.60;64.57;100994.41;6341943;22;45333;-80
2022/08/18 05:41:12;;;;;;;;;13.50;12.00;;;;;19.66;63.97;101001.31;6324407;22;45395;-79
2022/08/18 05:43:39;;;;;;;;;13.50;12.50;;;;;19.59;64.36;100995.31;6313860;22;45243;-81
2022/08/18 05:46:10;;;;;;;;;11.00;11.00;;;;;19.61;64.45;100997.00;6341332;22;45238;-84
2022/08/18 05:48:35;;;;;;;;;13.50;12.25;;;;;19.70;64.11;101009.22;6314014;22;47834;-81
2022/08/18 05:51:13;;;;;;;;;10.75;9.50;;;;;19.69;64.60;100998.56;6343574;22;45558;-82
2022/08/18 05:56:46;;;;;;;;;14.25;10.00;;;;;19.75;64.36;101001.00;6291881;22;45280;-82
2022/08/18 05:59:34;;;;;;;;;13.50;12.75;;;;;19.81;64.17;101015.00;6313207;22;47831;-82
2022/08/18 06:02:20;;;;;;;;;16.25;15.25;;;;;19.73;64.02;101002.88;6341960;22;45389;-82
2022/08/18 06:04:57;;;;;;;;;14.50;13.00;;;;;19.82;64.10;101018.53;6341977;22;45143;-82
2022/08/18 06:07:39;;;;;;;;;17.50;16.00;;;;;19.89;63.98;101019.16;6341884;22;45235;-84
2022/08/18 06:10:06;;;;;;;;;17.50;14.50;;;;;19.88;64.13;101020.97;6341660;22;45580;-84
2022/08/18 06:12:37;;;;;;;;;19.50;17.75;;;;;19.94;64.03;101019.88;6341434;22;45249;-83
2022/08/18 06:15:11;;;;;;;;;17.25;14.75;;;;;19.83;64.19;100990.88;6341621;22;45340;-84
2022/08/18 06:17:45;;;;;;;;;14.00;13.00;;;;;19.97;63.85;101009.97;6341251;22;45356;-84
2022/08/18 06:20:23;;;;;;;;;15.00;15.00;;;;;19.92;64.17;100995.03;6313053;22;48431;-84
2022/08/18 06:22:48;;;;;;;;;19.00;15.00;;;;;20.07;63.74;101017.59;6341593;22;45402;-83
2022/08/18 06:25:25;;;;;;;;;16.25;15.00;;;;;20.00;63.79;100996.47;6313388;22;45639;-84
2022/08/18 06:27:54;;;;;;;;;19.50;18.50;;;;;20.11;63.99;101011.22;6341317;22;45238;-83
2022/08/18 06:30:41;;;;;;;;;21.25;17.00;;;;;20.16;64.07;101017.25;6341389;22;45435;-83
2022/08/18 06:33:34;;;;;;;;;14.50;14.50;;;;;20.17;63.87;101025.19;6342985;22;45328;-84
2022/08/18 06:36:23;;;;;;;;;17.25;17.25;;;;;20.07;63.94;101009.59;6313149;22;45429;-83
2022/08/18 06:38:49;;;;;;;;;18.00;17.00;;;;;20.22;63.54;101033.06;6313013;22;45219;-82
2022/08/18 06:41:47;;;;;;;;;21.75;18.50;;;;;20.25;63.65;101030.25;6312633;22;46041;-82
2022/08/18 06:44:20;;;;;;;;;21.00;19.50;;;;;20.21;63.70;101020.63;6312867;22;45213;-83
2022/08/18 06:47:02;;;;;;;;;24.75;22.25;;;;;20.28;63.62;101022.09;6306973;22;45159;-84
2022/08/18 06:50:16;;;;;;;;;24.25;20.50;;;;;20.37;64.14;101028.88;6310048;22;45445;-84
2022/08/18 06:53:00;;;;;;;;;21.50;20.25;;;;;20.30;64.05;101006.00;6286144;22;47819;-83
2022/08/18 06:55:39;;;;;;;;;21.50;21.50;;;;;20.47;63.83;101027.59;6309332;22;45300;-82
2022/08/18 06:58:26;;;;;;;;;24.50;23.00;;;;;20.53;63.72;101037.16;6310005;22;45373;-81
2022/08/18 07:00:52;;;;;;;;;24.25;20.25;;;;;20.53;63.38;101027.38;6306880;22;45489;-83
2022/08/18 07:03:21;;;;;;;;;27.00;25.25;;;;;20.46;63.59;101015.16;6309527;22;45321;-83
2022/08/18 07:06:15;;;;;;;;;21.50;19.50;;;;;20.63;63.53;101027.88;6309315;22;45442;-83
2022/08/18 07:08:44;;;;;;;;;23.75;22.50;;;;;20.63;63.58;101023.38;6307616;22;45366;-83
2022/08/18 07:11:26;;;;;;;;;21.25;19.25;;;;;20.78;63.30;101037.09;6309437;22;45269;-82
2022/08/18 07:13:57;;;;;;;;;28.25;26.50;;;;;20.78;63.46;101037.09;6307249;22;48026;-83
2022/08/18 07:16:26;;;;;;;;;31.50;27.00;;;;;20.88;63.52;101043.81;6306949;22;45237;-83
2022/08/18 07:19:15;;;;;;;;;19.25;17.50;;;;;20.80;63.88;101027.19;6309768;22;45321;-83
2022/08/18 07:21:42;;;;;;;;;35.50;30.00;;;;;20.89;63.67;101035.69;6309308;22;45447;-83
2022/08/18 07:24:20;;;;;;;;;31.50;28.50;;;;;21.01;63.43;101050.38;6307075;22;47088;-82
2022/08/18 07:27:04;;;;;;;;;26.75;26.00;;;;;21.13;63.48;101057.88;6309332;22;45395;-83
2022/08/18 07:29:36;;;;;;;;;22.25;22.25;;;;;21.09;63.09;101042.00;6306336;22;45584;-82
2022/08/18 07:32:05;;;;;;;;;26.50;24.25;;;;;21.16;62.94;101035.44;6306895;22;45195;-82
2022/08/18 07:34:36;;;;;;;;;28.25;26.75;;;;;21.20;62.94;101039.75;6308537;22;45344;-82
2022/08/18 07:37:23;;;;;;;;;30.00;27.50;;;;;21.25;63.09;101028.81;6308791;22;45371;-81
2022/08/18 07:39:58;;;;;;;;;34.25;32.50;;;;;21.42;62.96;101054.91;6309130;22;45388;-85
2022/08/18 07:42:33;;;;;;;;;34.25;32.25;;;;;21.48;62.94;101060.00;6309420;22;45227;-83
2022/08/18 07:45:16;;;;;;;;;33.25;29.75;;;;;21.51;62.79;101058.03;6308502;22;45214;-84
2022/08/18 07:47:58;;;;;;;;;30.25;29.50;;;;;21.55;62.53;101056.97;6329891;22;45355;-84
2022/08/18 07:50:26;;;;;;;;;25.25;24.25;;;;;21.54;62.56;101043.66;6312338;22;45271;-85
2022/08/18 07:53:21;;;;;;;;;29.25;27.00;;;;;21.70;62.72;101043.81;6340491;22;45097;-84
2022/08/18 07:55:53;;;;;;;;;36.50;30.50;;;;;21.69;62.12;101044.78;6340394;22;46509;-84
2022/08/18 07:58:31;;;;;;;;;27.25;26.50;;;;;21.79;62.20;101054.16;6312588;22;46008;-85
2022/08/18 08:01:09;;;;;;;;;29.25;28.00;;;;;21.83;61.89;101042.31;6311726;22;45391;-85
2022/08/18 08:03:41;;;;;;;;;28.50;26.75;;;;;21.95;62.05;101052.50;6312102;22;45457;-85
2022/08/18 08:06:22;;;;;;;;;31.00;29.00;;;;;22.03;61.81;101049.47;6321433;22;47211;-86
2022/08/18 08:08:48;;;;;;;;;29.00;26.50;;;;;22.10;61.97;101050.03;6349342;22;44699;-84
2022/08/18 08:11:16;;;;;;;;;24.25;24.25;;;;;22.17;61.62;101044.31;6311131;22;45659;-86
2022/08/18 08:14:08;;;;;;;;;31.75;29.00;;;;;22.27;61.52;101051.97;6312068;22;45235;-86
2022/08/18 08:16:45;;;;;;;;;36.75;32.25;;;;;22.35;61.42;101050.66;6255910;22;46367;-85
2022/08/18 08:19:43;;;;;;;;;34.25;31.00;;;;;22.43;60.79;101035.06;6311817;22;45206;-85
2022/08/18 08:22:19;;;;;;;;;38.25;32.50;;;;;22.56;61.08;101032.66;6287254;22;45325;-86
2022/08/18 08:24:50;;;;;;;;;39.25;34.25;;;;;22.68;60.31;101036.53;6312268;22;45697;-86
2022/08/18 08:27:26;;;;;;;;;32.75;27.75;;;;;22.70;60.88;101026.59;6311850;22;48005;-77
2022/08/18 08:30:15;;;;;;;;;32.25;29.50;;;;;22.82;60.24;101022.41;6339849;22;45208;-77
2022/08/18 08:33:16;;;;;;;;;28.00;27.00;;;;;22.88;60.05;101023.00;6312368;22;45358;-79
2022/08/18 08:35:51;;;;;;;;;35.25;29.50;;;;;23.06;59.80;101034.63;6186735;22;45394;-78
2022/08/18 08:38:24;;;;;;;;;28.25;23.75;;;;;23.09;59.66;101020.16;6319958;22;48485;-78
2022/08/18 08:40:56;;;;;;;;;33.50;31.50;;;;;23.24;59.84;101030.13;6340537;22;45357;-78
2022/08/18 08:43:33;;;;;;;;;34.00;30.00;;;;;23.40;59.26;101034.72;6341231;22;45368;-78
2022/08/18 08:46:42;;;;;;;;;33.50;30.25;;;;;23.46;59.20;101026.31;6341035;22;45535;-78
2022/08/18 08:49:37;;;;;;;;;34.75;32.25;;;;;23.52;58.52;101020.59;6255166;22;46302;-79
2022/08/18 08:52:11;;;;;;;;;36.25;31.50;;;;;23.51;58.32;101014.38;6313280;22;45638;-79
2022/08/18 08:54:52;;;;;;;;;30.00;28.25;;;;;23.71;58.64;101042.00;6341491;22;45227;-79
2022/08/18 08:57:21;;;;;;;;;30.00;30.00;;;;;23.72;58.30;101035.72;6313040;22;45451;-78
2022/08/18 08:59:48;;;;;;;;;33.75;31.50;;;;;23.82;58.11;101039.66;6338887;22;48132;-78
2022/08/18 09:02:24;;;;;;;;;31.75;30.50;;;;;23.86;57.88;101040.34;6341109;22;45212;-78
2022/08/18 09:05:08;;;;;;;;;30.00;25.00;;;;;23.93;58.32;101036.38;6313146;22;45360;-78
2022/08/18 09:08:13;;;;;;;;;30.75;27.00;;;;;23.92;57.79;101032.81;6341243;22;45100;-77
2022/08/18 09:10:58;;;;;;;;;31.25;29.75;;;;;23.93;57.04;101031.00;6341396;22;45467;-78
2022/08/18 09:13:50;;;;;;;;;33.25;30.50;;;;;23.97;57.31;101032.53;6312986;22;45127;-77
2022/08/18 09:16:24;;;;;;;;;37.75;32.25;;;;;24.09;57.02;101044.47;6341369;22;45325;-77
2022/08/18 09:18:55;;;;;;;;;26.50;26.50;;;;;24.11;56.98;101038.03;6312751;22;45365;-77
2022/08/18 09:21:28;;;;;;;;;31.00;30.00;;;;;24.22;57.20;101053.59;6341572;22;45977;-78
2022/08/18 09:24:05;;;;;;;;;32.25;29.50;;;;;24.28;56.99;101049.69;6313672;22;45216;-77
2022/08/18 09:26:38;;;;;;;;;26.50;24.75;;;;;24.41;56.36;101053.41;6313179;22;45299;-78
2022/08/18 09:29:22;;;;;;;;;29.50;27.75;;;;;24.49;56.18;101051.19;6341523;22;45139;-78
2022/08/18 09:32:08;;;;;;;;;31.00;29.75;;;;;24.62;56.37;101054.91;6341394;22;45242;-78
2022/08/18 09:34:43;;;;;;;;;29.25;27.25;;;;;24.71;56.06;101052.66;6312807;22;45265;-78
2022/08/18 09:37:17;;;;;;;;;28.75;26.75;;;;;24.77;55.34;101049.59;6334302;22;45206;-79
2022/08/18 09:43:16;;;;;;;;;27.25;25.75;;;;;24.90;54.65;101041.66;6294403;22;46091;-79
2022/08/18 09:45:41;;;;;;;;;31.75;30.00;;;;;25.03;54.93;101053.44;6310971;22;45773;-80
2022/08/18 09:48:09;;;;;;;;;28.00;25.25;;;;;25.09;54.38;101055.78;6338578;22;45222;-79
2022/08/18 09:50:49;;;;;;;;;27.50;27.25;;;;;25.06;54.68;101034.41;6311749;22;45632;-80
2022/08/18 09:53:31;;;;;;;;;26.50;25.75;;;;;25.13;54.47;101037.59;6337056;22;47953;-80
2022/08/18 09:55:58;;;;;;;;;27.00;25.50;;;;;25.25;54.07;101042.28;6339506;22;45423;-80
2022/08/18 09:58:23;;;;;;;;;29.75;26.00;;;;;25.37;53.99;101040.66;6340120;22;45448;-79
2022/08/18 10:01:26;;;;;;;;;28.50;27.50;;;;;25.44;53.44;101042.03;6339849;22;45411;-80
2022/08/18 10:04:13;;;;;;;;;28.75;25.00;;;;;25.60;53.00;101047.34;6339583;22;45384;-79
2022/08/18 10:06:44;;;;;;;;;25.25;23.25;;;;;25.62;53.23;101042.72;6312009;22;46091;-80
2022/08/18 10:09:31;;;;;;;;;27.25;26.75;;;;;25.76;53.20;101037.34;6339645;22;45236;-84
2022/08/18 10:12:38;;;;;;;;;32.75;30.75;;;;;25.83;52.84;101032.44;6339553;22;45380;-83
2022/08/18 10:15:40;;;;;;;;;25.75;25.75;;;;;25.84;51.88;101035.06;6226787;22;46300;-83
2022/08/18 10:18:28;;;;;;;;;21.50;21.50;;;;;25.89;52.13;101029.38;6340901;22;45409;-84
2022/08/18 10:21:00;;;;;;;;;29.25;27.50;;;;;25.99;51.88;101029.66;6312213;22;45460;-85
2022/08/18 10:23:47;;;;;;;;;21.75;20.25;;;;;26.07;51.46;101024.66;6338973;22;45427;-85
2022/08/18 10:26:38;;;;;;;;;23.25;22.75;;;;;26.08;50.72;101004.78;6341088;22;46394;-84
2022/08/18 10:29:30;;;;;;;;;25.25;24.25;;;;;26.28;50.77;101009.75;6313174;22;45322;-84
2022/08/18 10:31:55;;;;;;;;;25.50;23.00;;;;;26.36;50.69;101007.41;6337517;22;45289;-82
2022/08/18 10:34:51;;;;;;;;;18.00;16.25;;;;;26.47;49.93;101004.00;6311116;22;45524;-86
2022/08/18 10:40:32;;;;;;;;;15.25;15.25;;;;;26.56;49.26;100989.06;6243577;22;45692;-85
2022/08/18 10:43:31;;;;;;;;;22.75;21.00;;;;;26.68;49.08;100984.66;6311686;22;45407;-84
2022/08/18 10:45:57;;;;;;;;;28.75;25.75;;;;;26.77;48.50;100989.44;6339556;22;45507;-85
2022/08/18 10:48:37;;;;;;;;;22.00;20.75;;;;;26.81;48.46;100983.75;6301617;22;47047;-89
2022/08/18 11:00:21;;;;;;;;;15.00;14.75;;;;;27.93;47.10;100991.25;6159484;22;47246;-82
2022/08/18 11:03:13;;;;;;;;;16.25;15.25;;;;;28.14;46.48;100986.97;6277939;22;45401;-84
2022/08/18 11:05:39;;;;;;;;;16.50;13.50;;;;;28.32;45.76;100976.63;6237338;22;45173;-82
2022/08/18 11:08:11;;;;;;;;;15.00;13.00;;;;;28.55;44.95;100988.50;6277960;22;45437;-81
2022/08/18 11:10:47;;;;;;;;;13.50;12.75;;;;;28.77;44.36;100990.44;6277507;22;46403;-82
2022/08/18 11:13:28;;;;;;;;;12.50;12.50;;;;;28.97;43.89;100997.00;6248988;22;45324;-85
2022/08/18 11:16:12;;;;;;;;;12.25;12.00;;;;;29.11;43.24;100997.81;6249802;22;45337;-82
2022/08/18 11:18:45;;;;;;;;;11.67;10.67;;;;;29.27;42.55;100992.06;6278149;22;45553;-81
2022/08/18 11:21:36;;;;;;;;;12.00;11.00;;;;;29.51;41.79;100997.41;6278124;22;45490;-81
2022/08/18 11:24:20;;;;;;;;;10.50;10.50;;;;;29.69;42.10;100987.81;6277138;22;45743;-82
2022/08/18 11:27:02;;;;;;;;;13.25;12.25;;;;;29.76;41.54;100983.63;6251693;22;45425;-81
2022/08/18 11:29:37;;;;;;;;;9.00;9.00;;;;;29.84;41.45;100980.31;6277795;22;45406;-81
2022/08/18 11:32:30;;;;;;;;;15.75;14.75;;;;;29.97;40.75;100988.31;6249789;22;47371;-81
2022/08/18 11:34:58;;;;;;;;;14.75;13.50;;;;;30.03;41.32;100995.97;6275983;22;45308;-81
2022/08/18 11:37:37;;;;;;;;;13.00;11.00;;;;;29.94;40.74;100986.72;6250131;22;45291;-81
2022/08/18 11:40:09;;;;;;;;;17.25;15.50;;;;;29.77;40.63;100995.34;6249422;22;45478;-81
2022/08/18 11:42:38;;;;;;;;;15.50;13.75;;;;;29.56;40.82;100989.75;6277967;22;46293;-82
2022/08/18 11:45:17;;;;;;;;;12.25;12.25;;;;;29.38;40.37;100992.97;6249993;22;45272;-82
2022/08/18 11:48:14;;;;;;;;;12.67;12.00;;;;;29.21;41.06;100986.13;6250130;22;45434;-81
2022/08/18 11:50:48;;;;;;;;;9.33;9.33;;;;;29.24;40.87;100988.63;6277915;22;45302;-81
2022/08/18 11:53:23;;;;;;;;;9.67;9.67;;;;;29.29;40.22;100982.81;6277460;22;45419;-81
2022/08/18 11:56:14;;;;;;;;;13.00;10.00;;;;;29.42;40.15;100991.72;6275816;22;45312;-81
2022/08/18 11:58:46;;;;;;;;;12.00;11.67;;;;;29.62;40.23;100997.44;6237079;22;45397;-81
2022/08/18 12:01:31;;;;;;;;;9.00;9.00;;;;;29.80;39.95;101001.38;6274469;22;45617;-80
2022/08/18 12:04:20;;;;;;;;;12.33;12.00;;;;;29.81;39.82;101005.84;6277579;22;45393;-81
2022/08/18 12:06:58;;;;;;;;;12.33;11.33;;;;;29.98;39.63;101001.75;6262511;22;45361;-80
2022/08/18 12:09:42;;;;;;;;;13.67;12.33;;;;;30.21;39.19;100999.03;6250020;22;45287;-83